Time;durP1;ratioP1;P1;durP2;ratioP2;P2;SDS_P1;SDS_P2;PMS_P1;PMS_P2;Temp;Humidity;BMP_temperature;BMP_pressure;BME280_temperature;BME280_humidity;BME280_pressure;Samples;Min_cycle;Max_cycle;Signal;HPM_P1;HPM_P2
2023/06/28 00:01:24;;;;;;;15.02;6.95;;;18.00;99.90;;;;;;4855698;29;20054;-58
2023/06/28 00:03:52;;;;;;;13.00;6.28;;;18.00;99.90;;;;;;4847669;29;20061;-68
2023/06/28 00:06:20;;;;;;;12.85;5.32;;;18.00;99.90;;;;;;4856724;29;20053;-65
2023/06/28 00:08:48;;;;;;;12.18;5.68;;;18.00;99.90;;;;;;4856744;29;20091;-60
2023/06/28 00:11:15;;;;;;;12.57;5.88;;;18.00;99.90;;;;;;4853468;29;20485;-68
2023/06/28 00:13:44;;;;;;;12.13;6.10;;;18.00;99.90;;;;;;4854457;29;20058;-61
2023/06/28 00:16:14;;;;;;;12.32;6.20;;;18.00;99.90;;;;;;4854761;29;20049;-69
2023/06/28 00:18:45;;;;;;;10.43;5.65;;;18.00;99.90;;;;;;4846636;29;20050;-65
2023/06/28 00:21:13;;;;;;;8.77;5.10;;;18.00;99.90;;;;;;4850169;29;20064;-69
2023/06/28 00:23:41;;;;;;;10.38;5.55;;;18.00;99.90;;;;;;4856134;29;20410;-66
2023/06/28 00:26:09;;;;;;;15.43;6.00;;;18.00;99.90;;;;;;4856600;29;20143;-62
2023/06/28 00:28:37;;;;;;;11.20;5.68;;;18.00;99.90;;;;;;4854775;29;20076;-61
2023/06/28 00:31:08;;;;;;;11.93;5.88;;;18.00;99.90;;;;;;4854957;29;20049;-60
2023/06/28 00:33:37;;;;;;;12.68;5.80;;;18.00;99.90;;;;;;4847584;29;20494;-60
2023/06/28 00:36:04;;;;;;;9.18;5.78;;;18.00;99.90;;;;;;4855052;29;20046;-60
2023/06/28 00:38:34;;;;;;;9.55;5.68;;;18.00;99.90;;;;;;4856184;29;20053;-64
2023/06/28 00:41:03;;;;;;;11.52;5.22;;;18.00;99.90;;;;;;4868700;29;20045;-60
2023/06/28 00:43:33;;;;;;;13.85;5.13;;;18.00;99.90;;;;;;4867297;29;20571;-62
2023/06/28 00:46:00;;;;;;;14.40;6.00;;;18.00;99.90;;;;;;4854676;29;20057;-60
2023/06/28 00:48:28;;;;;;;13.43;5.88;;;18.00;99.90;;;;;;4852635;29;20049;-59
2023/06/28 00:50:56;;;;;;;10.00;5.40;;;18.00;99.90;;;;;;4854783;29;20506;-60
2023/06/28 00:53:24;;;;;;;11.05;5.75;;;18.00;99.90;;;;;;4855753;29;20049;-60
2023/06/28 00:55:53;;;;;;;11.93;5.95;;;18.00;99.90;;;;;;4855645;29;20072;-64
2023/06/28 00:58:21;;;;;;;13.05;6.15;;;18.00;99.90;;;;;;4851634;29;20410;-64
2023/06/28 01:00:49;;;;;;;12.40;6.13;;;18.00;99.90;;;;;;4852797;29;20053;-67
2023/06/28 01:03:18;;;;;;;9.88;5.05;;;18.00;99.90;;;;;;4845545;29;20072;-60
2023/06/28 01:05:48;;;;;;;12.25;6.05;;;18.00;99.90;;;;;;4852221;29;20410;-59
2023/06/28 01:08:18;;;;;;;11.82;6.00;;;18.00;99.90;;;;;;4853753;29;20046;-58
2023/06/28 01:10:47;;;;;;;14.13;6.43;;;18.00;99.90;;;;;;4853273;29;20052;-61
2023/06/28 01:13:16;;;;;;;10.38;4.53;;;17.90;99.90;;;;;;4852698;29;20486;-58
2023/06/28 01:15:44;;;;;;;12.52;6.32;;;17.90;99.90;;;;;;4852945;29;20491;-62
2023/06/28 01:18:12;;;;;;;12.73;5.82;;;17.90;99.90;;;;;;4867773;29;20053;-60
2023/06/28 01:20:40;;;;;;;13.18;6.03;;;17.90;99.90;;;;;;4855459;29;20060;-59
2023/06/28 01:23:08;;;;;;;10.35;5.35;;;17.90;99.90;;;;;;4854368;29;20069;-58
2023/06/28 01:25:36;;;;;;;14.02;5.88;;;17.90;99.90;;;;;;4855524;29;20521;-59
2023/06/28 01:28:04;;;;;;;8.93;4.75;;;17.90;99.90;;;;;;4869680;29;20490;-58
2023/06/28 01:30:37;;;;;;;10.27;5.55;;;17.90;99.90;;;;;;4868136;29;20045;-59
2023/06/28 01:33:05;;;;;;;9.35;5.07;;;17.90;99.90;;;;;;4853020;29;20519;-58
2023/06/28 01:35:33;;;;;;;12.20;5.60;;;17.90;99.90;;;;;;4864470;29;20536;-58
2023/06/28 01:38:01;;;;;;;13.02;5.53;;;17.90;99.90;;;;;;4841926;29;20057;-59
2023/06/28 01:40:35;;;;;;;6.72;4.60;;;17.90;99.90;;;;;;4872372;29;20046;-60
2023/06/28 01:43:06;;;;;;;11.27;5.13;;;17.90;99.90;;;;;;4857686;29;20060;-60
2023/06/28 01:45:34;;;;;;;8.63;4.13;;;17.90;99.90;;;;;;4854852;29;20053;-60
2023/06/28 01:48:02;;;;;;;8.77;4.80;;;17.90;99.90;;;;;;4858459;29;20045;-60
2023/06/28 01:50:30;;;;;;;9.35;4.53;;;17.90;99.90;;;;;;4858253;29;20049;-59
2023/06/28 01:53:02;;;;;;;7.40;4.80;;;17.90;99.90;;;;;;4859748;29;20052;-65
2023/06/28 01:55:30;;;;;;;10.43;5.13;;;18.00;99.90;;;;;;4860984;29;20053;-66
2023/06/28 01:57:57;;;;;;;8.20;4.35;;;18.00;99.90;;;;;;4861469;29;20120;-63
2023/06/28 02:00:26;;;;;;;11.68;4.10;;;18.00;99.90;;;;;;4860185;29;20042;-62
2023/06/28 02:02:53;;;;;;;7.75;4.20;;;18.00;99.90;;;;;;4869424;29;20512;-60
2023/06/28 02:05:22;;;;;;;7.50;4.07;;;18.00;99.90;;;;;;4879088;29;20049;-61
2023/06/28 02:07:49;;;;;;;7.38;4.07;;;18.00;99.90;;;;;;4880643;29;20045;-59
2023/06/28 02:10:21;;;;;;;5.00;2.83;;;18.00;99.90;;;;;;4879879;29;20064;-58
2023/06/28 02:12:50;;;;;;;8.40;3.92;;;18.00;99.90;;;;;;4875445;29;20065;-61
2023/06/28 02:15:19;;;;;;;7.97;4.32;;;18.00;99.90;;;;;;4842409;29;20062;-59
2023/06/28 02:17:47;;;;;;;7.43;3.88;;;18.00;99.90;;;;;;4861474;29;20486;-57
2023/06/28 02:20:15;;;;;;;8.35;3.88;;;18.00;99.90;;;;;;4860377;29;20053;-58
2023/06/28 02:22:43;;;;;;;7.60;4.10;;;18.00;99.90;;;;;;4861798;29;20054;-59
2023/06/28 02:25:11;;;;;;;7.63;4.07;;;18.00;99.90;;;;;;4862189;29;20046;-58
2023/06/28 02:27:40;;;;;;;7.80;3.53;;;18.00;99.90;;;;;;4860303;29;20046;-67
2023/06/28 02:30:08;;;;;;;7.68;4.45;;;18.00;99.90;;;;;;4861056;29;20486;-66
2023/06/28 02:32:36;;;;;;;7.68;4.40;;;18.00;99.90;;;;;;4868597;29;20045;-68
2023/06/28 02:35:04;;;;;;;9.13;4.57;;;18.00;99.90;;;;;;4869231;29;20053;-64
2023/06/28 02:37:32;;;;;;;7.63;4.78;;;18.00;99.90;;;;;;4861358;29;20060;-65
2023/06/28 02:40:02;;;;;;;9.05;4.50;;;18.00;99.90;;;;;;4861191;29;20057;-68
2023/06/28 02:42:30;;;;;;;9.38;4.97;;;18.00;99.90;;;;;;4844804;29;20061;-68
2023/06/28 02:44:57;;;;;;;9.23;5.05;;;18.00;99.90;;;;;;4847819;29;20060;-68
2023/06/28 02:47:25;;;;;;;9.02;4.70;;;18.00;99.90;;;;;;4858048;29;20060;-67
2023/06/28 02:49:53;;;;;;;7.20;4.90;;;18.00;99.90;;;;;;4859396;29;20045;-68
2023/06/28 02:52:20;;;;;;;8.60;4.68;;;18.00;99.90;;;;;;4861368;29;20049;-58
2023/06/28 02:54:49;;;;;;;9.48;5.03;;;18.00;99.90;;;;;;4859783;29;20494;-61
2023/06/28 02:57:17;;;;;;;7.43;4.38;;;18.00;99.90;;;;;;4858965;29;20540;-62
2023/06/28 02:59:50;;;;;;;10.80;4.35;;;18.00;99.90;;;;;;4859381;29;20504;-62
2023/06/28 03:02:18;;;;;;;7.43;4.57;;;18.00;99.90;;;;;;4859663;29;20050;-59
2023/06/28 03:04:46;;;;;;;8.27;4.55;;;18.00;99.90;;;;;;4875072;29;20049;-59
2023/06/28 03:07:15;;;;;;;12.80;5.30;;;18.00;99.90;;;;;;4875085;29;20049;-60
2023/06/28 03:09:43;;;;;;;6.93;4.38;;;18.00;99.90;;;;;;4859509;29;20383;-60
2023/06/28 03:12:11;;;;;;;7.95;4.50;;;18.00;99.90;;;;;;4861282;29;20057;-60
2023/06/28 03:14:39;;;;;;;8.82;4.38;;;18.00;99.90;;;;;;4860369;29;20049;-62
2023/06/28 03:17:07;;;;;;;6.32;3.75;;;18.00;99.90;;;;;;4857905;29;20058;-61
2023/06/28 03:19:35;;;;;;;8.60;4.20;;;18.00;99.90;;;;;;4860636;29;20050;-60
2023/06/28 03:22:03;;;;;;;7.38;4.30;;;18.00;99.90;;;;;;4858312;29;20410;-62
2023/06/28 03:24:31;;;;;;;6.90;4.32;;;18.00;99.90;;;;;;4857495;29;20403;-60
2023/06/28 03:26:59;;;;;;;7.45;3.67;;;18.00;99.90;;;;;;4874815;29;20042;-60
2023/06/28 03:29:26;;;;;;;6.68;3.38;;;18.00;99.90;;;;;;4873001;29;20119;-64
2023/06/28 03:31:55;;;;;;;6.20;3.70;;;18.00;99.90;;;;;;4876085;29;20049;-63
2023/06/28 03:34:23;;;;;;;5.35;3.50;;;18.10;99.90;;;;;;4860650;29;20050;-64
2023/06/28 03:36:51;;;;;;;6.68;3.40;;;18.00;99.90;;;;;;4860166;29;20529;-64
2023/06/28 03:39:32;;;;;;;5.13;3.33;;;18.00;99.90;;;;;;4874455;29;20045;-58
2023/06/28 03:41:59;;;;;;;5.03;3.25;;;18.00;99.90;;;;;;4858625;29;20088;-64
2023/06/28 03:44:28;;;;;;;5.22;3.30;;;18.00;99.90;;;;;;4857690;29;20053;-60
2023/06/28 03:46:56;;;;;;;6.55;3.05;;;18.00;99.90;;;;;;4858883;29;20060;-65
2023/06/28 03:49:24;;;;;;;6.80;2.80;;;18.00;99.90;;;;;;4860175;29;20645;-60
2023/06/28 03:51:51;;;;;;;4.10;2.90;;;18.10;99.90;;;;;;4858972;29;20550;-62
2023/06/28 03:54:19;;;;;;;5.78;2.97;;;18.00;99.90;;;;;;4859694;29;20413;-64
2023/06/28 03:56:49;;;;;;;4.82;3.20;;;18.00;99.90;;;;;;4857907;29;20415;-62
2023/06/28 03:59:17;;;;;;;4.63;3.00;;;18.10;99.90;;;;;;4858403;29;20041;-63
2023/06/28 04:01:44;;;;;;;4.72;3.25;;;18.00;99.90;;;;;;4860309;29;20397;-60
2023/06/28 04:04:15;;;;;;;4.80;3.00;;;18.00;99.90;;;;;;4878658;29;20148;-62
2023/06/28 04:06:45;;;;;;;5.50;3.30;;;18.00;99.90;;;;;;4877234;29;20064;-61
2023/06/28 04:09:13;;;;;;;4.77;2.90;;;18.10;99.90;;;;;;4874441;29;20126;-59
2023/06/28 04:11:40;;;;;;;5.38;3.03;;;18.00;99.90;;;;;;4859641;29;20057;-62
2023/06/28 04:14:08;;;;;;;4.65;2.60;;;18.00;99.90;;;;;;4859466;29;20061;-60
2023/06/28 04:16:36;;;;;;;3.40;2.47;;;18.00;99.90;;;;;;4857923;29;20049;-67
2023/06/28 04:19:05;;;;;;;3.53;2.20;;;18.00;99.90;;;;;;4859401;29;20053;-61
2023/06/28 04:21:33;;;;;;;3.67;2.60;;;18.10;99.90;;;;;;4858604;29;20060;-59
2023/06/28 04:24:02;;;;;;;5.38;3.05;;;18.10;99.90;;;;;;4859634;29;20056;-62
2023/06/28 04:26:29;;;;;;;3.45;2.33;;;18.10;99.90;;;;;;4859771;29;20054;-65
2023/06/28 04:28:57;;;;;;;5.55;2.20;;;18.10;99.90;;;;;;4857202;29;20049;-61
2023/06/28 04:31:25;;;;;;;3.97;2.00;;;18.10;99.90;;;;;;4858887;29;20054;-59
2023/06/28 04:33:55;;;;;;;3.72;2.22;;;18.10;99.90;;;;;;4876034;29;20049;-59
2023/06/28 04:36:26;;;;;;;3.72;1.98;;;18.10;99.90;;;;;;4878044;29;20053;-62
2023/06/28 04:38:55;;;;;;;3.85;1.63;;;18.10;99.90;;;;;;4863455;29;20049;-62
2023/06/28 04:41:23;;;;;;;2.70;1.55;;;18.10;99.90;;;;;;4858118;29;20505;-62
2023/06/28 04:43:55;;;;;;;3.95;1.95;;;18.10;99.90;;;;;;4859290;29;20060;-62
2023/06/28 04:46:26;;;;;;;3.33;1.70;;;18.10;99.90;;;;;;4857662;29;20049;-59
2023/06/28 04:48:56;;;;;;;2.85;1.83;;;18.20;99.90;;;;;;4844180;29;20057;-59
2023/06/28 04:51:24;;;;;;;2.80;1.83;;;18.10;99.90;;;;;;4850844;29;20053;-60
2023/06/28 04:53:52;;;;;;;5.80;2.05;;;18.20;99.90;;;;;;4855436;29;20046;-61
2023/06/28 04:56:20;;;;;;;3.72;2.42;;;18.20;99.90;;;;;;4856297;29;20053;-59
2023/06/28 04:58:48;;;;;;;4.25;2.47;;;18.20;99.90;;;;;;4839228;29;20064;-63
2023/06/28 05:01:16;;;;;;;3.92;2.22;;;18.20;99.90;;;;;;4855097;29;20525;-67
2023/06/28 05:03:47;;;;;;;3.33;2.08;;;18.20;99.90;;;;;;4836367;29;20607;-68
2023/06/28 05:06:16;;;;;;;3.95;2.25;;;18.20;99.90;;;;;;4847840;29;20065;-67
2023/06/28 05:08:44;;;;;;;4.55;2.40;;;18.20;99.90;;;;;;4843941;29;20235;-67
2023/06/28 05:11:12;;;;;;;5.13;3.03;;;18.20;99.90;;;;;;4842480;29;20407;-66
2023/06/28 05:13:41;;;;;;;5.28;2.97;;;18.20;99.90;;;;;;4851117;29;20046;-66
2023/06/28 05:16:09;;;;;;;7.43;3.70;;;18.20;99.90;;;;;;4848637;29;20053;-65
2023/06/28 05:18:36;;;;;;;5.05;3.42;;;18.20;99.90;;;;;;4847220;29;20042;-61
2023/06/28 05:21:04;;;;;;;4.80;3.03;;;18.20;99.90;;;;;;4834372;29;20053;-61
2023/06/28 05:23:32;;;;;;;4.20;2.88;;;18.10;99.90;;;;;;4854020;29;20062;-59
2023/06/28 05:25:59;;;;;;;4.90;3.10;;;18.20;99.90;;;;;;4853877;29;20053;-61
2023/06/28 05:28:27;;;;;;;3.88;2.63;;;18.20;99.90;;;;;;4855925;29;20049;-60
2023/06/28 05:30:55;;;;;;;7.13;3.65;;;18.20;99.90;;;;;;4858986;29;20054;-62
2023/06/28 05:33:22;;;;;;;3.03;1.95;;;18.20;99.90;;;;;;4857185;29;20418;-60
2023/06/28 05:35:50;;;;;;;4.10;2.13;;;18.20;99.90;;;;;;4841773;29;20042;-59
2023/06/28 05:38:18;;;;;;;2.65;1.90;;;18.20;99.90;;;;;;4850095;29;20070;-62
2023/06/28 05:40:45;;;;;;;3.33;2.30;;;18.30;99.90;;;;;;4852645;29;20054;-60
2023/06/28 05:43:13;;;;;;;4.72;2.42;;;18.30;99.90;;;;;;4854151;29;20414;-59
2023/06/28 05:45:42;;;;;;;4.70;2.40;;;18.30;99.90;;;;;;4855876;29;20057;-59
2023/06/28 05:48:09;;;;;;;3.38;2.15;;;18.30;99.90;;;;;;4858911;29;20056;-60
2023/06/28 05:50:37;;;;;;;3.88;2.20;;;18.30;99.90;;;;;;4839653;29;20038;-60
2023/06/28 05:53:08;;;;;;;5.32;3.05;;;18.30;99.90;;;;;;4851016;29;20441;-59
2023/06/28 05:55:36;;;;;;;6.07;3.15;;;18.30;99.90;;;;;;4856951;29;20315;-63
2023/06/28 05:58:04;;;;;;;4.97;3.35;;;18.30;99.90;;;;;;4855184;29;20490;-63
2023/06/28 06:00:32;;;;;;;6.40;3.28;;;18.40;99.90;;;;;;4853226;29;20062;-64
2023/06/28 06:03:00;;;;;;;5.07;2.88;;;18.40;99.90;;;;;;4858502;29;20049;-61
2023/06/28 06:05:28;;;;;;;4.45;2.63;;;18.30;99.90;;;;;;4853952;29;20069;-62
2023/06/28 06:07:56;;;;;;;4.55;2.70;;;18.40;99.90;;;;;;4849386;29;20370;-62
2023/06/28 06:10:23;;;;;;;6.07;3.17;;;18.40;99.90;;;;;;4857146;29;20521;-64
2023/06/28 06:12:53;;;;;;;7.75;2.67;;;18.40;99.90;;;;;;4857894;29;20080;-66
2023/06/28 06:15:20;;;;;;;5.88;2.90;;;18.40;99.90;;;;;;4855993;29;20046;-58
2023/06/28 06:17:50;;;;;;;5.40;3.00;;;18.50;99.90;;;;;;4858166;29;20053;-58
2023/06/28 06:20:19;;;;;;;7.07;2.88;;;18.50;99.90;;;;;;4844939;29;20054;-60
2023/06/28 06:22:46;;;;;;;7.30;3.17;;;18.50;99.90;;;;;;4845594;29;20057;-66
2023/06/28 06:25:15;;;;;;;8.15;2.67;;;18.60;99.90;;;;;;4855263;29;20331;-62
2023/06/28 06:27:44;;;;;;;3.65;1.73;;;18.60;99.90;;;;;;4855407;29;20053;-62
2023/06/28 06:30:13;;;;;;;2.75;1.80;;;18.70;99.90;;;;;;4854861;29;20053;-64
2023/06/28 06:32:41;;;;;;;3.83;1.55;;;18.70;99.90;;;;;;4867177;29;20068;-64
2023/06/28 06:35:09;;;;;;;2.55;1.10;;;18.80;99.90;;;;;;4843407;29;20061;-63
2023/06/28 06:37:36;;;;;;;3.03;0.93;;;18.80;99.90;;;;;;4852288;29;20057;-67
2023/06/28 06:40:06;;;;;;;2.22;1.10;;;18.90;99.90;;;;;;4840476;29;20058;-61
2023/06/28 06:42:34;;;;;;;1.42;1.10;;;19.00;99.90;;;;;;4848402;29;20060;-65
2023/06/28 06:45:02;;;;;;;1.17;1.02;;;19.00;99.90;;;;;;4852147;29;20132;-58
2023/06/28 06:47:29;;;;;;;2.63;1.10;;;19.00;99.90;;;;;;4846078;29;20556;-60
2023/06/28 06:49:57;;;;;;;2.53;0.80;;;19.10;99.90;;;;;;4855959;29;20050;-68
2023/06/28 06:52:24;;;;;;;2.35;1.10;;;19.10;99.90;;;;;;4855480;29;20075;-68
2023/06/28 06:54:52;;;;;;;1.83;0.82;;;19.10;99.90;;;;;;4857467;29;20550;-68
2023/06/28 06:57:20;;;;;;;1.60;0.90;;;19.10;99.90;;;;;;4844223;29;20058;-64
2023/06/28 06:59:47;;;;;;;1.20;0.82;;;19.10;99.90;;;;;;4857880;29;20486;-66
2023/06/28 07:02:15;;;;;;;2.88;0.77;;;19.10;99.90;;;;;;4851662;29;20053;-65
2023/06/28 07:04:43;;;;;;;10.77;1.33;;;19.20;99.90;;;;;;4853505;29;20537;-60
2023/06/28 07:07:11;;;;;;;2.33;1.00;;;19.20;99.90;;;;;;4842817;29;20056;-68
2023/06/28 07:09:39;;;;;;;1.45;0.90;;;19.20;99.90;;;;;;4850180;29;20407;-64
2023/06/28 07:12:08;;;;;;;1.08;0.98;;;19.30;99.90;;;;;;4841332;29;20058;-68
2023/06/28 07:14:35;;;;;;;3.05;0.80;;;19.30;99.90;;;;;;4855389;29;20052;-66
2023/06/28 07:17:03;;;;;;;1.67;0.98;;;19.30;99.90;;;;;;4854613;29;20054;-64
2023/06/28 07:19:31;;;;;;;1.50;0.77;;;19.40;99.90;;;;;;4850349;29;20049;-59
2023/06/28 07:21:58;;;;;;;1.15;0.77;;;19.40;99.90;;;;;;4853068;29;20494;-61
2023/06/28 07:24:26;;;;;;;4.75;1.10;;;19.50;99.90;;;;;;4853727;29;20518;-59
2023/06/28 07:26:53;;;;;;;2.72;0.98;;;19.50;99.90;;;;;;4849395;29;20046;-59
2023/06/28 07:29:23;;;;;;;1.55;0.73;;;19.60;99.90;;;;;;4849221;29;20052;-59
2023/06/28 07:31:52;;;;;;;1.55;0.80;;;19.60;99.90;;;;;;4851408;29;20064;-61
2023/06/28 07:34:20;;;;;;;2.35;1.00;;;19.70;99.90;;;;;;4846820;29;20401;-58
2023/06/28 07:36:48;;;;;;;2.58;0.80;;;19.70;99.90;;;;;;4850823;29;20061;-59
2023/06/28 07:39:15;;;;;;;2.00;1.00;;;19.70;99.90;;;;;;4850855;29;20058;-59
2023/06/28 07:41:43;;;;;;;1.63;1.15;;;19.80;99.90;;;;;;4854602;29;20042;-60
2023/06/28 07:44:11;;;;;;;2.40;1.20;;;19.80;99.90;;;;;;4854394;29;20073;-60
2023/06/28 07:46:38;;;;;;;2.08;1.40;;;19.90;99.90;;;;;;4854882;29;20414;-62
2023/06/28 07:49:06;;;;;;;3.75;1.50;;;19.90;99.90;;;;;;4854299;29;20045;-61
2023/06/28 07:51:33;;;;;;;2.63;1.15;;;20.00;99.90;;;;;;4855012;29;20049;-63
2023/06/28 07:54:02;;;;;;;2.13;1.17;;;20.10;99.90;;;;;;4867833;29;20045;-60
2023/06/28 07:56:29;;;;;;;2.13;1.35;;;20.10;99.90;;;;;;4853117;29;20375;-60
2023/06/28 07:59:00;;;;;;;3.22;1.50;;;20.20;99.90;;;;;;4853912;29;20054;-61
2023/06/28 08:01:28;;;;;;;3.00;1.60;;;20.20;99.90;;;;;;4848358;29;20061;-59
2023/06/28 08:03:56;;;;;;;2.00;1.15;;;20.30;99.90;;;;;;4848105;29;20542;-58
2023/06/28 08:06:24;;;;;;;1.30;1.13;;;20.30;99.90;;;;;;4851194;29;20054;-60
2023/06/28 08:08:52;;;;;;;4.35;1.83;;;20.40;99.90;;;;;;4853328;29;20065;-60
2023/06/28 08:11:19;;;;;;;6.85;2.03;;;20.40;99.90;;;;;;4851760;29;20200;-58
2023/06/28 08:13:47;;;;;;;2.58;1.48;;;20.50;99.90;;;;;;4852517;29;20061;-58
2023/06/28 08:16:15;;;;;;;2.30;1.38;;;20.50;99.90;;;;;;4856366;29;20045;-59
2023/06/28 08:18:43;;;;;;;2.50;1.45;;;20.50;99.90;;;;;;4856655;29;20049;-59
2023/06/28 08:21:11;;;;;;;2.83;1.63;;;20.50;99.90;;;;;;4856590;29;20045;-58
2023/06/28 08:23:39;;;;;;;2.55;1.25;;;20.50;99.90;;;;;;4852495;29;20041;-59
2023/06/28 08:26:06;;;;;;;1.63;1.40;;;20.50;99.90;;;;;;4851153;29;20045;-58
2023/06/28 08:28:34;;;;;;;2.15;1.50;;;20.50;99.90;;;;;;4848772;29;20053;-61
2023/06/28 08:31:20;;;;;;;2.92;1.90;;;20.50;99.90;;;;;;4850944;29;20069;-58
2023/06/28 08:33:48;;;;;;;2.83;1.90;;;20.60;99.90;;;;;;4849400;29;20054;-58
2023/06/28 08:36:16;;;;;;;4.75;1.80;;;20.70;99.90;;;;;;4855810;29;20054;-58
2023/06/28 08:38:43;;;;;;;2.65;1.60;;;20.70;99.90;;;;;;4854992;29;20414;-60
2023/06/28 08:41:12;;;;;;;4.75;1.50;;;20.80;99.90;;;;;;4847246;29;20060;-59
2023/06/28 08:43:41;;;;;;;2.67;1.50;;;20.90;99.90;;;;;;4847425;29;20042;-58
2023/06/28 08:46:09;;;;;;;2.65;1.20;;;20.90;99.90;;;;;;4849840;29;20046;-59
2023/06/28 08:48:37;;;;;;;1.52;1.33;;;21.00;99.90;;;;;;4849773;29;20054;-58
2023/06/28 08:51:05;;;;;;;1.73;1.40;;;21.00;99.90;;;;;;4854703;29;20518;-59
2023/06/28 08:53:35;;;;;;;2.78;1.42;;;21.00;99.90;;;;;;4853928;29;20417;-60
2023/06/28 08:56:04;;;;;;;2.70;1.70;;;21.00;99.90;;;;;;4854800;29;20061;-58
2023/06/28 08:58:33;;;;;;;3.92;1.80;;;21.00;99.90;;;;;;4847825;29;20050;-58
2023/06/28 09:01:01;;;;;;;2.75;1.63;;;21.10;99.90;;;;;;4852267;29;20049;-58
2023/06/28 09:03:30;;;;;;;1.95;1.58;;;21.10;99.90;;;;;;4850577;29;20062;-61
2023/06/28 09:05:59;;;;;;;5.15;1.60;;;21.10;99.90;;;;;;4853384;29;20057;-60
2023/06/28 09:08:27;;;;;;;4.68;1.67;;;21.20;99.90;;;;;;4849412;29;20489;-58
2023/06/28 09:10:55;;;;;;;7.30;1.67;;;21.20;99.90;;;;;;4855800;29;20077;-59
2023/06/28 09:13:23;;;;;;;2.80;1.50;;;21.20;99.90;;;;;;4850805;29;20577;-60
2023/06/28 09:15:52;;;;;;;3.45;1.30;;;21.30;99.90;;;;;;4839406;29;20057;-58
2023/06/28 09:18:21;;;;;;;2.05;1.23;;;21.30;99.90;;;;;;4850012;29;20061;-63
2023/06/28 09:20:51;;;;;;;5.65;1.38;;;21.30;99.90;;;;;;4854315;29;20132;-66
2023/06/28 09:23:27;;;;;;;1.67;1.10;;;21.40;99.90;;;;;;4842115;29;20056;-62
2023/06/28 09:25:55;;;;;;;1.25;0.77;;;21.40;99.90;;;;;;4855797;29;20049;-68
2023/06/28 09:28:24;;;;;;;1.90;1.20;;;21.50;99.90;;;;;;4851203;29;20517;-68
2023/06/28 09:30:54;;;;;;;3.47;1.20;;;21.60;99.90;;;;;;4851642;29;20203;-65
2023/06/28 09:33:25;;;;;;;1.23;1.13;;;21.80;99.90;;;;;;4847705;29;20062;-64
2023/06/28 09:36:02;;;;;;;5.00;1.20;;;21.90;99.90;;;;;;4839639;29;20065;-63
2023/06/28 09:38:29;;;;;;;1.10;1.00;;;22.10;99.90;;;;;;4849366;29;20053;-68
2023/06/28 09:41:00;;;;;;;3.05;1.08;;;22.20;99.90;;;;;;4849767;29;20061;-65
2023/06/28 09:43:32;;;;;;;;;;;22.30;99.90;;;;;;4853999;29;20061;-68
2023/06/28 09:46:14;;;;;;;3.20;1.00;;;22.40;99.90;;;;;;4854724;29;19931;-60
2023/06/28 09:48:44;;;;;;;3.40;1.02;;;22.50;99.90;;;;;;4851668;29;20054;-60
2023/06/28 09:51:14;;;;;;;1.20;0.90;;;22.60;99.90;;;;;;4852570;29;20498;-60
2023/06/28 09:53:49;;;;;;;0.98;0.75;;;22.60;99.90;;;;;;4854150;29;20549;-60
2023/06/28 09:56:17;;;;;;;2.05;1.00;;;22.60;99.90;;;;;;4853932;29;20053;-60
2023/06/28 09:58:48;;;;;;;1.58;1.02;;;22.60;99.90;;;;;;4850954;29;20398;-61
2023/06/28 10:01:17;;;;;;;2.50;0.82;;;22.50;99.90;;;;;;4853317;29;20073;-59
2023/06/28 10:03:45;;;;;;;1.27;0.90;;;22.40;99.90;;;;;;4852385;29;20056;-58
2023/06/28 10:06:15;;;;;;;1.27;1.00;;;22.40;99.90;;;;;;4853474;29;20053;-59
2023/06/28 10:08:43;;;;;;;3.17;1.10;;;22.30;99.90;;;;;;4863013;29;20490;-61
2023/06/28 10:11:15;;;;;;;2.08;1.10;;;22.20;99.90;;;;;;4853180;29;20645;-60
2023/06/28 10:13:47;;;;;;;3.67;0.60;;;22.10;99.90;;;;;;4851948;29;20479;-65
2023/06/28 10:16:20;;;;;;;2.28;0.80;;;22.10;99.90;;;;;;4870035;29;20041;-59
2023/06/28 10:18:48;;;;;;;0.55;0.50;;;22.10;99.90;;;;;;4854737;29;20058;-62
2023/06/28 10:21:17;;;;;;;0.77;0.50;;;22.10;99.90;;;;;;4857478;29;20053;-59
2023/06/28 10:23:45;;;;;;;3.35;1.10;;;22.00;99.90;;;;;;4856155;29;20053;-63
2023/06/28 10:26:13;;;;;;;2.55;0.90;;;22.00;99.90;;;;;;4857826;29;20053;-62
2023/06/28 10:28:41;;;;;;;1.70;1.08;;;22.00;99.90;;;;;;4856039;29;20049;-63
2023/06/28 10:31:10;;;;;;;3.00;0.80;;;22.00;99.90;;;;;;4871866;29;20061;-61
2023/06/28 10:33:38;;;;;;;4.68;1.20;;;22.10;99.90;;;;;;4854438;29;20073;-63
2023/06/28 10:36:06;;;;;;;4.38;0.70;;;22.20;99.90;;;;;;4852024;29;20057;-61
2023/06/28 10:38:45;;;;;;;4.57;0.90;;;22.30;99.90;;;;;;4857794;29;20494;-60
2023/06/28 10:41:17;;;;;;;1.23;0.80;;;22.30;99.90;;;;;;4856954;29;20060;-59
2023/06/28 10:43:45;;;;;;;1.65;0.77;;;22.40;99.90;;;;;;4853733;29;21463;-64
2023/06/28 10:46:24;;;;;;;8.38;0.77;;;22.40;99.90;;;;;;4853430;29;20061;-60
2023/06/28 10:48:56;;;;;;;1.33;0.77;;;22.40;99.90;;;;;;4852900;29;20076;-60
2023/06/28 10:51:29;;;;;;;2.33;0.90;;;22.40;99.90;;;;;;4857789;29;20494;-64
2023/06/28 10:54:07;;;;;;;2.13;0.70;;;22.40;99.90;;;;;;4856559;29;20421;-69
2023/06/28 10:56:50;;;;;;;0.77;0.73;;;22.40;99.90;;;;;;4855493;29;20053;-69
2023/06/28 10:59:19;;;;;;;1.58;0.75;;;22.40;99.90;;;;;;4853557;29;20042;-66
2023/06/28 11:01:49;;;;;;;1.38;0.73;;;22.40;99.90;;;;;;4857431;29;20057;-66
2023/06/28 11:04:23;;;;;;;1.05;0.63;;;22.40;99.90;;;;;;4855059;29;20057;-64
2023/06/28 11:07:03;;;;;;;2.80;0.70;;;22.40;99.90;;;;;;4851457;29;20517;-63
2023/06/28 11:09:31;;;;;;;1.63;0.80;;;22.40;99.90;;;;;;4850530;29;20060;-63
2023/06/28 11:11:59;;;;;;;1.92;0.80;;;22.50;99.90;;;;;;4854764;29;20076;-69
2023/06/28 11:14:30;;;;;;;1.83;0.65;;;22.50;99.90;;;;;;4843759;29;20050;-69
2023/06/28 11:17:05;;;;;;;5.15;0.80;;;22.60;99.90;;;;;;4854793;29;20057;-68
2023/06/28 11:19:34;;;;;;;4.97;0.90;;;22.60;99.90;;;;;;4855008;29;20057;-60
2023/06/28 11:22:03;;;;;;;2.22;0.63;;;22.70;99.90;;;;;;4841215;29;20050;-63
2023/06/28 11:24:37;;;;;;;3.22;1.77;;;22.80;99.90;;;;;;4856943;29;20045;-64
2023/06/28 11:27:12;;;;;;;2.10;0.90;;;22.80;99.90;;;;;;4854603;29;20490;-69
2023/06/28 11:29:53;;;;;;;1.90;0.93;;;22.80;99.90;;;;;;4852521;29;20870;-59
2023/06/28 11:32:30;;;;;;;4.57;2.10;;;22.70;99.90;;;;;;4844696;29;20088;-58
2023/06/28 11:35:00;;;;;;;1.70;0.73;;;22.70;99.90;;;;;;4851692;29;20057;-61
2023/06/28 11:37:30;;;;;;;3.05;0.95;;;22.70;99.90;;;;;;4840267;29;20058;-60
2023/06/28 11:40:02;;;;;;;;;;;22.70;99.90;;;;;;4854911;29;20132;-62
2023/06/28 11:42:30;;;;;;;1.27;0.88;;;22.80;99.90;;;;;;4846345;29;19931;-60
2023/06/28 11:44:58;;;;;;;2.45;0.70;;;22.90;99.90;;;;;;4853910;29;20064;-65
2023/06/28 11:47:26;;;;;;;1.67;0.63;;;23.00;99.90;;;;;;4856339;29;20395;-68
2023/06/28 11:49:56;;;;;;;1.08;0.60;;;23.00;99.90;;;;;;4847015;29;20054;-59
2023/06/28 11:52:24;;;;;;;0.73;0.70;;;23.00;99.90;;;;;;4851055;29;20053;-66
2023/06/28 11:54:52;;;;;;;2.85;0.70;;;22.80;99.90;;;;;;4855997;29;20052;-61
2023/06/28 11:57:20;;;;;;;0.65;0.47;;;22.60;99.90;;;;;;4856616;29;20042;-68
2023/06/28 11:59:52;;;;;;;1.45;0.60;;;22.60;99.90;;;;;;4855472;29;20445;-68
2023/06/28 12:02:20;;;;;;;2.38;0.63;;;22.60;99.90;;;;;;4854887;29;20045;-69
2023/06/28 12:04:57;;;;;;;0.68;0.60;;;22.70;99.90;;;;;;4850250;29;20057;-67
2023/06/28 12:07:26;;;;;;;0.68;0.52;;;22.70;99.90;;;;;;4851473;29;20064;-67
2023/06/28 12:09:56;;;;;;;2.05;0.60;;;22.80;99.90;;;;;;4854794;29;20064;-59
2023/06/28 12:12:34;;;;;;;1.90;0.95;;;22.80;99.90;;;;;;4849276;29;20046;-58
2023/06/28 12:15:03;;;;;;;1.50;0.80;;;22.80;99.90;;;;;;4846344;29;20421;-60
2023/06/28 12:17:42;;;;;;;7.43;0.90;;;22.80;99.90;;;;;;4854236;29;20061;-62
2023/06/28 12:20:14;;;;;;;1.02;0.70;;;22.70;99.90;;;;;;4852868;29;20093;-61
2023/06/28 12:22:44;;;;;;;2.58;0.90;;;22.60;99.90;;;;;;4842884;29;20044;-64
2023/06/28 12:25:12;;;;;;;2.90;0.82;;;22.50;99.90;;;;;;4855579;29;20045;-63
2023/06/28 12:27:40;;;;;;;2.40;0.77;;;22.40;99.90;;;;;;4856074;29;20053;-62
2023/06/28 12:30:10;;;;;;;2.20;1.10;;;22.40;99.90;;;;;;4856048;29;20513;-64
2023/06/28 12:32:47;;;;;;;1.33;0.70;;;22.40;99.90;;;;;;4858553;29;20053;-64
2023/06/28 12:35:26;;;;;;;1.90;0.68;;;22.30;99.90;;;;;;4844962;29;20486;-65
2023/06/28 12:37:58;;;;;;;9.20;0.80;;;22.10;99.90;;;;;;4856210;29;20394;-59
2023/06/28 12:40:32;;;;;;;1.27;0.73;;;21.90;99.90;;;;;;4856116;29;20311;-59
2023/06/28 12:43:21;;;;;;;0.85;0.70;;;21.70;99.90;;;;;;4845926;29;20054;-59
2023/06/28 12:45:51;;;;;;;6.35;0.73;;;21.70;99.90;;;;;;4853612;29;20049;-59
2023/06/28 12:48:21;;;;;;;3.35;0.80;;;21.70;99.90;;;;;;4846895;29;20503;-66
2023/06/28 12:50:52;;;;;;;4.18;1.00;;;21.70;99.90;;;;;;4852032;29;20057;-60
2023/06/28 12:53:21;;;;;;;2.35;1.08;;;21.80;99.90;;;;;;4852140;29;20225;-58
2023/06/28 12:55:49;;;;;;;1.15;0.88;;;21.80;99.90;;;;;;4855081;29;20053;-59